createdAt,value
2017-05-29T00:00:26.987Z,1012.18
2017-05-29T00:01:27.022Z,1012.21
2017-05-29T00:02:27.048Z,1012.29
2017-05-29T00:03:27.087Z,1012.35
2017-05-29T00:04:27.140Z,1012.35
2017-05-29T00:05:27.178Z,1012.34
2017-05-29T00:06:27.196Z,1012.35
2017-05-29T00:07:27.254Z,1012.28
2017-05-29T00:08:27.291Z,1012.29
2017-05-29T00:09:27.329Z,1012.22
2017-05-29T00:10:27.367Z,1012.21
2017-05-29T00:11:27.386Z,1012.14
2017-05-29T00:12:27.442Z,1012.16
2017-05-29T00:13:27.483Z,1012.14
2017-05-29T00:14:27.516Z,1012.15
2017-05-29T00:15:27.556Z,1012.1
2017-05-29T00:16:27.593Z,1012.11
2017-05-29T00:17:27.631Z,1012.09
2017-05-29T00:18:27.670Z,1012.07
2017-05-29T00:19:27.705Z,1012.1
2017-05-29T00:20:27.746Z,1012.1
2017-05-29T00:21:27.785Z,1012.07
2017-05-29T00:22:27.822Z,1012.1
2017-05-29T00:23:27.861Z,1012.05
2017-05-29T00:24:27.875Z,1012.04
2017-05-29T00:25:27.936Z,1012.01
2017-05-29T00:26:27.975Z,1012
2017-05-29T00:27:28.014Z,1011.99
2017-05-29T00:28:28.048Z,1011.97
2017-05-29T00:29:28.088Z,1011.95
2017-05-29T00:30:28.126Z,1011.94
2017-05-29T00:31:28.166Z,1011.96
2017-05-29T00:32:28.188Z,1011.97
2017-05-29T00:33:28.239Z,1011.94
2017-05-29T00:34:28.282Z,1011.95
2017-05-29T00:35:28.318Z,1011.92
2017-05-29T00:36:28.356Z,1011.94
2017-05-29T00:37:28.392Z,1011.9
2017-05-29T00:38:28.416Z,1011.91
2017-05-29T00:39:28.468Z,1011.89
2017-05-29T00:40:28.503Z,1011.9
2017-05-29T00:41:28.544Z,1011.87
2017-05-29T00:42:28.584Z,1011.85
2017-05-29T00:43:28.619Z,1011.85
2017-05-29T00:44:28.656Z,1011.86
2017-05-29T00:45:28.698Z,1011.86
2017-05-29T00:46:28.736Z,1011.89
2017-05-29T00:47:28.775Z,1011.86
2017-05-29T00:48:28.807Z,1011.92
2017-05-29T00:49:28.848Z,1011.87
2017-05-29T00:50:28.891Z,1011.88
2017-05-29T00:51:28.924Z,1011.86
2017-05-29T00:52:28.959Z,1011.85
2017-05-29T00:53:29.004Z,1011.8
2017-05-29T00:54:29.043Z,1011.82
2017-05-29T00:55:29.058Z,1011.85
2017-05-29T00:56:29.119Z,1011.83
2017-05-29T00:57:29.153Z,1011.88
2017-05-29T00:58:29.192Z,1011.82
2017-05-29T00:59:29.228Z,1011.82
2017-05-29T01:00:29.265Z,1011.83
2017-05-29T01:01:29.297Z,1011.76
2017-05-29T01:02:29.343Z,1011.76
2017-05-29T01:03:29.384Z,1011.75
2017-05-29T01:04:29.419Z,1011.77
2017-05-29T01:05:29.456Z,1011.75
2017-05-29T01:06:29.497Z,1011.73
2017-05-29T01:07:29.530Z,1011.7
2017-05-29T01:08:29.573Z,1011.7
2017-05-29T01:09:29.607Z,1011.67
2017-05-29T01:10:29.646Z,1011.71
2017-05-29T01:11:29.684Z,1011.7
2017-05-29T01:12:29.719Z,1011.72
2017-05-29T01:13:29.764Z,1011.74
2017-05-29T01:14:29.797Z,1011.74
2017-05-29T01:15:29.834Z,1011.71
2017-05-29T01:16:29.873Z,1011.69
2017-05-29T01:17:29.906Z,1011.72
2017-05-29T01:18:29.959Z,1011.75
2017-05-29T01:19:29.995Z,1011.79
2017-05-29T01:20:30.025Z,1011.75
2017-05-29T01:21:30.061Z,1011.76
2017-05-29T01:22:30.098Z,1011.75
2017-05-29T01:23:30.138Z,1011.73
2017-05-29T01:24:30.176Z,1011.72
2017-05-29T01:25:30.212Z,1011.67
2017-05-29T01:26:30.254Z,1011.7
2017-05-29T01:27:30.287Z,1011.71
2017-05-29T01:28:30.311Z,1011.72
2017-05-29T01:29:30.367Z,1011.75
2017-05-29T01:30:30.404Z,1011.69
2017-05-29T01:31:30.443Z,1011.77
2017-05-29T01:32:30.483Z,1011.71
2017-05-29T01:33:30.513Z,1011.67
2017-05-29T01:34:30.555Z,1011.66
2017-05-29T01:35:30.590Z,1011.66
2017-05-29T01:36:30.634Z,1011.67
2017-05-29T01:37:30.671Z,1011.63
2017-05-29T01:38:30.706Z,1011.62
2017-05-29T01:39:30.749Z,1011.64
2017-05-29T01:40:30.780Z,1011.66
2017-05-29T01:41:30.818Z,1011.64
2017-05-29T01:42:30.860Z,1011.61
2017-05-29T01:43:30.897Z,1011.61
2017-05-29T01:44:30.930Z,1011.61
2017-05-29T01:45:30.968Z,1011.63
2017-05-29T01:46:31.011Z,1011.65
2017-05-29T01:47:31.050Z,1011.61
2017-05-29T01:48:31.082Z,1011.54
2017-05-29T01:49:31.123Z,1011.5
2017-05-29T01:50:31.162Z,1011.51
2017-05-29T01:51:31.204Z,1011.49
2017-05-29T01:52:31.240Z,1011.52
2017-05-29T01:53:31.276Z,1011.49
2017-05-29T01:54:31.309Z,1011.46
2017-05-29T01:55:31.347Z,1011.43
2017-05-29T01:56:31.388Z,1011.48
2017-05-29T01:57:31.417Z,1011.48
2017-05-29T01:58:31.460Z,1011.45
2017-05-29T01:59:31.501Z,1011.46
2017-05-29T02:00:31.537Z,1011.46
2017-05-29T02:01:31.574Z,1011.49
2017-05-29T02:02:31.598Z,1011.5
2017-05-29T02:03:31.650Z,1011.5
2017-05-29T02:04:31.690Z,1011.47
2017-05-29T02:05:31.712Z,1011.45
2017-05-29T02:06:31.766Z,1011.52
2017-05-29T02:07:31.805Z,1011.47
2017-05-29T02:08:31.838Z,1011.48
2017-05-29T02:09:31.881Z,1011.47
2017-05-29T02:10:31.915Z,1011.43
2017-05-29T02:11:31.952Z,1011.48
2017-05-29T02:12:31.992Z,1011.44
2017-05-29T02:13:32.032Z,1011.44
2017-05-29T02:14:32.070Z,1011.41
2017-05-29T02:15:32.105Z,1011.38
2017-05-29T02:16:32.144Z,1011.38
2017-05-29T02:17:32.180Z,1011.34
2017-05-29T02:18:32.219Z,1011.37
2017-05-29T02:19:32.253Z,1011.37
2017-05-29T02:20:32.291Z,1011.37
2017-05-29T02:21:32.315Z,1011.39
2017-05-29T02:22:32.373Z,1011.35
2017-05-29T02:23:32.407Z,1011.37
2017-05-29T02:24:32.442Z,1011.35
2017-05-29T02:25:32.478Z,1011.36
2017-05-29T02:26:32.516Z,1011.35
2017-05-29T02:27:32.554Z,1011.37
2017-05-29T02:28:32.591Z,1011.3
2017-05-29T02:29:32.634Z,1011.34
2017-05-29T02:30:32.668Z,1011.35
2017-05-29T02:31:32.704Z,1011.28
2017-05-29T02:32:32.743Z,1011.34
2017-05-29T02:33:32.781Z,1011.33
2017-05-29T02:34:32.815Z,1011.34
2017-05-29T02:35:32.843Z,1011.31
2017-05-29T02:36:32.898Z,1011.32
2017-05-29T02:37:32.932Z,1011.31
2017-05-29T02:38:32.968Z,1011.33
2017-05-29T02:39:33.005Z,1011.33
2017-05-29T02:40:33.042Z,1011.31
2017-05-29T02:41:33.064Z,1011.37
2017-05-29T02:42:33.117Z,1011.31
2017-05-29T02:43:33.151Z,1011.33
2017-05-29T02:44:33.191Z,1011.31
2017-05-29T02:45:33.212Z,1011.33
2017-05-29T02:46:33.253Z,1011.34
2017-05-29T02:47:33.309Z,1011.34
2017-05-29T02:48:33.341Z,1011.32
2017-05-29T02:49:33.381Z,1011.31
2017-05-29T02:50:33.418Z,1011.33
2017-05-29T02:51:33.452Z,1011.26
2017-05-29T02:52:33.489Z,1011.25
2017-05-29T02:53:33.530Z,1011.21
2017-05-29T02:54:33.565Z,1011.23
2017-05-29T02:55:33.603Z,1011.23
2017-05-29T02:56:33.641Z,1011.28
2017-05-29T02:57:33.680Z,1011.26
2017-05-29T02:58:33.715Z,1011.27
2017-05-29T02:59:33.756Z,1011.29
2017-05-29T03:00:33.791Z,1011.31
2017-05-29T03:01:33.806Z,1011.33
2017-05-29T03:02:33.852Z,1011.34
2017-05-29T03:03:33.904Z,1011.32
2017-05-29T03:04:33.939Z,1011.33
2017-05-29T03:05:33.977Z,1011.38
2017-05-29T03:06:34.000Z,1011.38
2017-05-29T03:07:34.055Z,1011.34
2017-05-29T03:08:34.088Z,1011.37
2017-05-29T03:09:34.122Z,1011.35
2017-05-29T03:10:34.164Z,1011.39
2017-05-29T03:11:34.198Z,1011.38
2017-05-29T03:12:34.238Z,1011.37
2017-05-29T03:13:34.276Z,1011.34
2017-05-29T03:14:34.313Z,1011.36
2017-05-29T03:15:34.349Z,1011.31
2017-05-29T03:16:34.388Z,1011.29
2017-05-29T03:17:34.426Z,1011.3
2017-05-29T03:18:34.459Z,1011.32
2017-05-29T03:19:34.481Z,1011.34
2017-05-29T03:20:34.536Z,1011.36
2017-05-29T03:21:34.572Z,1011.41
2017-05-29T03:22:34.612Z,1011.45
2017-05-29T03:23:34.632Z,1011.42
2017-05-29T03:24:34.688Z,1011.39
2017-05-29T03:25:34.700Z,1011.43
2017-05-29T03:26:34.759Z,1011.41
2017-05-29T03:27:34.801Z,1011.42
2017-05-29T03:28:34.812Z,1011.43
2017-05-29T03:29:34.869Z,1011.44
2017-05-29T03:30:34.910Z,1011.43
2017-05-29T03:31:34.943Z,1011.48
2017-05-29T03:32:34.961Z,1011.45
2017-05-29T03:33:35.021Z,1011.48
2017-05-29T03:34:35.061Z,1011.46
2017-05-29T03:35:35.094Z,1011.49
2017-05-29T03:36:35.124Z,1011.5
2017-05-29T03:37:35.167Z,1011.52
2017-05-29T03:38:35.211Z,1011.52
2017-05-29T03:39:35.245Z,1011.52
2017-05-29T03:40:35.287Z,1011.49
2017-05-29T03:41:35.308Z,1011.52
2017-05-29T03:42:35.355Z,1011.55
2017-05-29T03:43:35.394Z,1011.54
2017-05-29T03:44:35.430Z,1011.58
2017-05-29T03:45:35.466Z,1011.56
2017-05-29T03:46:35.501Z,1011.6
2017-05-29T03:47:35.544Z,1011.58
2017-05-29T03:48:35.579Z,1011.59
2017-05-29T03:49:35.617Z,1011.62
2017-05-29T03:50:35.656Z,1011.64
2017-05-29T03:51:35.695Z,1011.64
2017-05-29T03:52:35.707Z,1011.62
2017-05-29T03:53:35.767Z,1011.66
2017-05-29T03:54:35.800Z,1011.67
2017-05-29T03:55:35.842Z,1011.67
2017-05-29T03:56:35.878Z,1011.68
2017-05-29T03:57:35.918Z,1011.69
2017-05-29T03:58:35.954Z,1011.72
2017-05-29T03:59:35.989Z,1011.71
2017-05-29T04:00:36.024Z,1011.71
2017-05-29T04:01:36.067Z,1011.7
2017-05-29T04:02:36.100Z,1011.7
2017-05-29T04:03:36.142Z,1011.74
2017-05-29T04:04:36.154Z,1011.72
2017-05-29T04:05:36.218Z,1011.76
2017-05-29T04:06:36.251Z,1011.75
2017-05-29T04:07:36.303Z,1011.81
2017-05-29T04:08:36.335Z,1011.79
2017-05-29T04:09:36.362Z,1011.81
2017-05-29T04:10:36.406Z,1011.82
2017-05-29T04:11:36.440Z,1011.81
2017-05-29T04:12:36.475Z,1011.83
2017-05-29T04:13:36.519Z,1011.83
2017-05-29T04:14:36.552Z,1011.89
2017-05-29T04:15:36.588Z,1011.93
2017-05-29T04:16:36.607Z,1011.92
2017-05-29T04:17:36.668Z,1011.93
2017-05-29T04:18:36.706Z,1011.99
2017-05-29T04:19:36.743Z,1012.04
2017-05-29T04:20:36.781Z,1012.02
2017-05-29T04:21:36.821Z,1012.01
2017-05-29T04:22:36.857Z,1012.05
2017-05-29T04:23:36.893Z,1012.09
2017-05-29T04:24:36.934Z,1012.06
2017-05-29T04:25:36.962Z,1011.97
2017-05-29T04:26:37.015Z,1011.95
2017-05-29T04:27:37.050Z,1011.99
2017-05-29T04:28:37.088Z,1011.93
2017-05-29T04:29:37.115Z,1011.94
2017-05-29T04:30:37.167Z,1011.98
2017-05-29T04:31:37.208Z,1011.98
2017-05-29T04:32:37.248Z,1011.99
2017-05-29T04:33:37.281Z,1012.04
2017-05-29T04:34:37.324Z,1012.04
2017-05-29T04:35:37.360Z,1012.03
2017-05-29T04:36:37.394Z,1012.08
2017-05-29T04:37:37.443Z,1012.1
2017-05-29T04:38:37.483Z,1012.1
2017-05-29T04:39:37.516Z,1012.07
2017-05-29T04:40:37.555Z,1012.12
2017-05-29T04:41:37.591Z,1012.12
2017-05-29T04:42:37.630Z,1012.15
2017-05-29T04:43:37.673Z,1012.15
2017-05-29T04:44:37.702Z,1012.16
2017-05-29T04:45:37.750Z,1012.17
2017-05-29T04:46:37.790Z,1012.13
2017-05-29T04:47:37.826Z,1012.15
2017-05-29T04:48:37.849Z,1012.15
2017-05-29T04:49:37.908Z,1012.17
2017-05-29T04:50:37.947Z,1012.14
2017-05-29T04:51:37.987Z,1012.16
2017-05-29T04:52:38.023Z,1012.2
2017-05-29T04:53:38.062Z,1012.19
2017-05-29T04:54:38.105Z,1012.19
2017-05-29T04:55:38.145Z,1012.2
2017-05-29T04:56:38.184Z,1012.19
2017-05-29T04:57:38.219Z,1012.2
2017-05-29T04:58:38.257Z,1012.17
2017-05-29T04:59:38.305Z,1012.22
2017-05-29T05:00:38.340Z,1012.2
2017-05-29T05:01:38.378Z,1012.26
2017-05-29T05:02:38.418Z,1012.29
2017-05-29T05:03:38.458Z,1012.21
2017-05-29T05:04:38.494Z,1012.22
2017-05-29T05:05:38.522Z,1012.22
2017-05-29T05:06:38.573Z,1012.24
2017-05-29T05:07:38.616Z,1012.23
2017-05-29T05:08:38.652Z,1012.22
2017-05-29T05:09:38.692Z,1012.29
2017-05-29T05:10:38.722Z,1012.24
2017-05-29T05:11:38.766Z,1012.29
2017-05-29T05:12:38.816Z,1012.28
2017-05-29T05:13:38.850Z,1012.28
2017-05-29T05:14:38.891Z,1012.32
2017-05-29T05:15:38.928Z,1012.27
2017-05-29T05:16:38.970Z,1012.31
2017-05-29T05:17:39.024Z,1012.34
2017-05-29T05:18:39.051Z,1012.37
2017-05-29T05:19:39.100Z,1012.38
2017-05-29T05:20:39.136Z,1012.39
2017-05-29T05:21:39.182Z,1012.31
2017-05-29T05:22:39.210Z,1012.31
2017-05-29T05:23:39.253Z,1012.3
2017-05-29T05:24:39.293Z,1012.29
2017-05-29T05:25:39.327Z,1012.3
2017-05-29T05:26:39.370Z,1012.36
2017-05-29T05:27:39.411Z,1012.36
2017-05-29T05:28:39.452Z,1012.42
2017-05-29T05:29:39.490Z,1012.39
2017-05-29T05:30:39.528Z,1012.34
2017-05-29T05:31:39.569Z,1012.34
2017-05-29T05:32:39.623Z,1012.3
2017-05-29T05:33:39.630Z,1012.3
2017-05-29T05:34:39.693Z,1012.34
2017-05-29T05:35:39.727Z,1012.29
2017-05-29T05:36:39.771Z,1012.26
2017-05-29T05:37:39.813Z,1012.24
2017-05-29T05:38:39.849Z,1012.21
2017-05-29T05:39:39.891Z,1012.23
2017-05-29T05:40:39.926Z,1012.2
2017-05-29T05:41:39.967Z,1012.2
2017-05-29T05:42:40.010Z,1012.2
2017-05-29T05:43:40.055Z,1012.24
2017-05-29T05:44:40.088Z,1012.24
2017-05-29T05:45:40.115Z,1012.25
2017-05-29T05:46:40.169Z,1012.23
2017-05-29T05:47:40.214Z,1012.24
2017-05-29T05:48:40.247Z,1012.21
2017-05-29T05:49:40.293Z,1012.23
2017-05-29T05:50:40.328Z,1012.19
2017-05-29T05:51:40.367Z,1012.16
2017-05-29T05:52:40.409Z,1012.16
2017-05-29T05:53:40.447Z,1012.14
2017-05-29T05:54:40.487Z,1012.15
2017-05-29T05:55:40.534Z,1012.08
2017-05-29T05:56:40.554Z,1012.14
2017-05-29T05:57:40.611Z,1012.16
2017-05-29T05:58:40.647Z,1012.12
2017-05-29T05:59:40.686Z,1012.12
2017-05-29T06:00:40.726Z,1012.19
2017-05-29T06:01:40.753Z,1012.19
2017-05-29T06:02:40.810Z,1012.25
2017-05-29T06:03:40.849Z,1012.28
2017-05-29T06:04:40.891Z,1012.24
2017-05-29T06:05:40.929Z,1012.33
2017-05-29T06:06:40.973Z,1012.37
2017-05-29T06:07:41.019Z,1012.36
2017-05-29T06:08:41.043Z,1012.34
2017-05-29T06:09:41.094Z,1012.32
2017-05-29T06:10:41.132Z,1012.27
2017-05-29T06:11:41.171Z,1012.27
2017-05-29T06:12:41.217Z,1012.25
2017-05-29T06:13:41.256Z,1012.26
2017-05-29T06:14:41.301Z,1012.3
2017-05-29T06:15:41.326Z,1012.35
2017-05-29T06:16:41.378Z,1012.54
2017-05-29T06:17:41.423Z,1012.5
2017-05-29T06:18:41.438Z,1012.61
2017-05-29T06:19:41.505Z,1012.59
2017-05-29T06:20:41.541Z,1012.46
2017-05-29T06:21:41.585Z,1012.36
2017-05-29T06:22:41.629Z,1012.42
2017-05-29T06:23:41.673Z,1012.23
2017-05-29T06:24:41.713Z,1012.21
2017-05-29T06:25:41.756Z,1012.2
2017-05-29T06:26:41.799Z,1012.2
2017-05-29T06:27:41.840Z,1012.21
2017-05-29T06:28:41.883Z,1012.18
2017-05-29T06:29:41.933Z,1012.14
2017-05-29T06:30:41.952Z,1012.19
2017-05-29T06:31:42.016Z,1012.16
2017-05-29T06:32:42.035Z,1012.38
2017-05-29T06:33:42.096Z,1012.26
2017-05-29T06:34:42.147Z,1012.28
2017-05-29T06:35:42.188Z,1012.35
2017-05-29T06:36:42.235Z,1012.27
2017-05-29T06:37:42.275Z,1012.27
2017-05-29T06:38:42.316Z,1012.31
2017-05-29T06:39:42.356Z,1012.33
2017-05-29T06:40:42.404Z,1012.31
2017-05-29T06:41:42.460Z,1012.22
2017-05-29T06:42:42.490Z,1012.42
2017-05-29T06:43:42.535Z,1012.25
2017-05-29T06:44:42.568Z,1012.29
2017-05-29T06:45:42.625Z,1012.34
2017-05-29T06:46:42.650Z,1012.21
2017-05-29T06:47:42.708Z,1012.41
2017-05-29T06:48:42.753Z,1012.45
2017-05-29T06:49:42.800Z,1012.47
2017-05-29T06:50:42.848Z,1012.38
2017-05-29T06:51:42.893Z,1012.21
2017-05-29T06:52:42.935Z,1012.16
2017-05-29T06:53:42.981Z,1012.12
2017-05-29T06:54:43.026Z,1012.14
2017-05-29T06:55:43.071Z,1012.11
2017-05-29T06:56:43.118Z,1012.1
2017-05-29T06:57:43.151Z,1012.1
2017-05-29T06:58:43.215Z,1012.1
2017-05-29T06:59:43.252Z,1012.16
2017-05-29T07:00:43.299Z,1012.13
2017-05-29T07:01:43.344Z,1012.27
2017-05-29T07:02:43.395Z,1012.33
2017-05-29T07:03:43.435Z,1012.29
2017-05-29T07:04:43.479Z,1012.43
2017-05-29T07:05:43.527Z,1012.35
2017-05-29T07:06:43.560Z,1012.27
2017-05-29T07:07:43.616Z,1012.3
2017-05-29T07:08:43.661Z,1012.26
2017-05-29T07:09:43.706Z,1012.29
2017-05-29T07:10:43.756Z,1012.12
2017-05-29T07:11:43.799Z,1012.17
2017-05-29T07:12:43.850Z,1012.13
2017-05-29T07:13:43.895Z,1012.14
2017-05-29T07:14:43.936Z,1012.1
2017-05-29T07:15:43.982Z,1012.22
2017-05-29T07:16:44.030Z,1012.22
2017-05-29T07:17:44.078Z,1012.1
2017-05-29T07:18:44.126Z,1012.14
2017-05-29T07:19:44.168Z,1012.08
2017-05-29T07:20:44.219Z,1012.19
2017-05-29T07:21:44.246Z,1012.24
2017-05-29T07:22:44.326Z,1012.2
2017-05-29T07:23:44.359Z,1012.07
2017-05-29T07:24:44.406Z,1011.99
2017-05-29T07:25:44.453Z,1012.11
2017-05-29T07:26:44.499Z,1012.02
2017-05-29T07:27:44.552Z,1012.01
2017-05-29T07:28:44.594Z,1012.1
2017-05-29T07:29:44.640Z,1012.18
2017-05-29T07:30:44.687Z,1012.19
2017-05-29T07:31:44.736Z,1012.06
2017-05-29T07:32:44.783Z,1012.18
2017-05-29T07:33:44.829Z,1012.26
2017-05-29T07:34:44.867Z,1012.24
2017-05-29T07:35:44.929Z,1012.22
2017-05-29T07:36:44.975Z,1012.28
2017-05-29T07:37:45.029Z,1012.33
2017-05-29T07:38:45.066Z,1012.32
2017-05-29T07:39:45.114Z,1012.29
2017-05-29T07:40:45.162Z,1012.27
2017-05-29T07:41:45.214Z,1012.25
2017-05-29T07:42:45.264Z,1012.26
2017-05-29T07:43:45.306Z,1012.22
2017-05-29T07:44:45.355Z,1012.22
2017-05-29T07:45:45.401Z,1012.2
2017-05-29T07:46:45.452Z,1012.12
2017-05-29T07:47:45.503Z,1012.14
2017-05-29T07:48:45.555Z,1012.14
2017-05-29T07:49:45.597Z,1012.18
2017-05-29T07:50:45.647Z,1012.11
2017-05-29T07:51:45.693Z,1012.14
2017-05-29T07:52:45.745Z,1012.13
2017-05-29T07:53:45.794Z,1012.13
2017-05-29T07:54:45.842Z,1012.11
2017-05-29T07:55:45.871Z,1012.12
2017-05-29T07:56:45.940Z,1012.12
2017-05-29T07:57:45.971Z,1012.14
2017-05-29T07:58:46.039Z,1012.15
2017-05-29T07:59:46.135Z,1012.18
2017-05-29T08:00:46.217Z,1012.19
2017-05-29T08:01:46.177Z,1012.2
2017-05-29T08:02:46.232Z,1012.18
2017-05-29T08:03:46.282Z,1012.21
2017-05-29T08:04:46.334Z,1012.19
2017-05-29T08:05:46.373Z,1012.16
2017-05-29T08:06:46.433Z,1012.16
2017-05-29T08:07:46.478Z,1012.18
2017-05-29T08:08:46.532Z,1012.21
2017-05-29T08:09:46.578Z,1012.25
2017-05-29T08:10:46.634Z,1012.28
2017-05-29T08:11:46.679Z,1012.3
2017-05-29T08:12:46.732Z,1012.31
2017-05-29T08:13:46.779Z,1012.27
2017-05-29T08:14:46.834Z,1012.33
2017-05-29T08:15:46.862Z,1012.34
2017-05-29T08:16:46.931Z,1012.37
2017-05-29T08:17:46.982Z,1012.32
2017-05-29T08:18:47.032Z,1012.33
2017-05-29T08:19:47.083Z,1012.31
2017-05-29T08:20:47.134Z,1012.34
2017-05-29T08:21:47.171Z,1012.35
2017-05-29T08:22:47.240Z,1012.33
2017-05-29T08:23:47.270Z,1012.37
2017-05-29T08:24:47.338Z,1012.33
2017-05-29T08:25:47.369Z,1012.33
2017-05-29T08:26:47.428Z,1012.33
2017-05-29T08:27:47.489Z,1012.27
2017-05-29T08:28:47.539Z,1012.28
2017-05-29T08:29:47.600Z,1012.31
2017-05-29T08:30:47.645Z,1012.32
2017-05-29T08:31:47.693Z,1012.38
2017-05-29T08:32:47.744Z,1012.37
2017-05-29T08:33:47.792Z,1012.45
2017-05-29T08:34:47.836Z,1012.42
2017-05-29T08:35:47.900Z,1012.5
2017-05-29T08:36:47.950Z,1012.47
2017-05-29T08:37:48.002Z,1012.26
2017-05-29T08:38:48.058Z,1012.23
2017-05-29T08:39:48.106Z,1012.27
2017-05-29T08:40:48.161Z,1012.13
2017-05-29T08:41:48.211Z,1012.1
2017-05-29T08:42:48.266Z,1011.89
2017-05-29T08:43:48.313Z,1012
2017-05-29T08:44:48.364Z,1012.17
2017-05-29T08:45:48.413Z,1012.3
2017-05-29T08:46:48.465Z,1012.39
2017-05-29T08:47:48.516Z,1012.26
2017-05-29T08:48:48.568Z,1012.14
2017-05-29T08:49:48.622Z,1012.21
2017-05-29T08:50:48.725Z,1012.02
2017-05-29T08:51:48.718Z,1011.94
2017-05-29T08:52:48.771Z,1012.1
2017-05-29T08:53:48.824Z,1012.4
2017-05-29T08:54:48.877Z,1012.36
2017-05-29T08:55:48.924Z,1012.36
2017-05-29T08:56:48.979Z,1012.24
2017-05-29T08:57:49.027Z,1012.24
2017-05-29T08:58:49.079Z,1012.3
2017-05-29T08:59:49.130Z,1012.31
2017-05-29T09:00:49.181Z,1012.31
2017-05-29T09:01:49.227Z,1012.3
2017-05-29T09:02:49.281Z,1012.39
2017-05-29T09:03:49.336Z,1012.29
2017-05-29T09:04:49.387Z,1012.34
2017-05-29T09:05:49.440Z,1012.35
2017-05-29T09:06:49.486Z,1012.29
2017-05-29T09:07:49.542Z,1012.22
2017-05-29T09:08:49.572Z,1012.11
2017-05-29T09:09:49.650Z,1012.16
2017-05-29T09:10:49.702Z,1012.27
2017-05-29T09:11:49.755Z,1012.39
2017-05-29T09:12:49.805Z,1012.31
2017-05-29T09:13:49.858Z,1012.36
2017-05-29T09:14:49.915Z,1012.29
2017-05-29T09:15:49.968Z,1012.13
2017-05-29T09:16:50.022Z,1011.91
2017-05-29T09:17:50.070Z,1012.06
2017-05-29T09:18:50.121Z,1012.2
2017-05-29T09:19:50.188Z,1012.37
2017-05-29T09:20:50.235Z,1012.51
2017-05-29T09:21:50.285Z,1012.4
2017-05-29T09:22:50.334Z,1012.37
2017-05-29T09:23:50.391Z,1012.36
2017-05-29T09:24:50.442Z,1012.44
2017-05-29T09:25:50.493Z,1012.49
2017-05-29T09:26:50.551Z,1012.53
2017-05-29T09:27:50.594Z,1012.43
2017-05-29T09:28:50.658Z,1012.45
2017-05-29T09:29:50.714Z,1012.44
2017-05-29T09:30:50.749Z,1012.35
2017-05-29T09:31:50.815Z,1012.41
2017-05-29T09:32:50.870Z,1012.43
2017-05-29T09:33:50.927Z,1012.43
2017-05-29T09:34:50.981Z,1012.42
2017-05-29T09:35:51.044Z,1012.33
2017-05-29T09:36:51.095Z,1012.29
2017-05-29T09:37:51.143Z,1012.27
2017-05-29T09:38:51.195Z,1012.27
2017-05-29T09:39:51.247Z,1012.36
2017-05-29T09:40:51.291Z,1012.23
2017-05-29T09:41:51.361Z,1012.33
2017-05-29T09:42:51.397Z,1012.39
2017-05-29T09:43:51.467Z,1012.38
2017-05-29T09:44:51.527Z,1012.35
2017-05-29T09:45:51.578Z,1012.37
2017-05-29T09:46:51.631Z,1012.39
2017-05-29T09:47:51.688Z,1012.46
2017-05-29T09:48:51.737Z,1012.48
2017-05-29T09:49:51.798Z,1012.5
2017-05-29T09:50:51.852Z,1012.45
2017-05-29T09:51:51.902Z,1012.45
2017-05-29T09:52:51.957Z,1012.45
2017-05-29T09:53:52.013Z,1012.52
2017-05-29T09:54:52.068Z,1012.51
2017-05-29T09:55:52.123Z,1012.44
2017-05-29T09:56:52.175Z,1012.49
2017-05-29T09:57:52.228Z,1012.52
2017-05-29T09:58:52.285Z,1012.46
2017-05-29T09:59:52.336Z,1012.47
2017-05-29T10:00:52.396Z,1012.54
2017-05-29T10:01:52.450Z,1012.52
2017-05-29T10:02:52.504Z,1012.4
2017-05-29T10:03:52.545Z,1012.43
2017-05-29T10:04:52.611Z,1012.16
2017-05-29T10:05:52.661Z,1012.42
2017-05-29T10:06:52.714Z,1012.62
2017-05-29T10:07:52.770Z,1012.31
2017-05-29T10:08:52.807Z,1012.3
2017-05-29T10:09:52.877Z,1012.45
2017-05-29T10:10:52.928Z,1012.13
2017-05-29T10:11:52.985Z,1012.8
2017-05-29T10:12:53.020Z,1011.98
2017-05-29T10:13:53.085Z,1012.14
2017-05-29T10:14:53.137Z,1012.19
2017-05-29T10:15:53.195Z,1012.05
2017-05-29T10:16:53.242Z,1012.23
2017-05-29T10:17:53.297Z,1012.99
2017-05-29T10:18:53.346Z,1012.17
2017-05-29T10:19:53.399Z,1012.09
2017-05-29T10:20:53.446Z,1011.89
2017-05-29T10:21:53.500Z,1011.76
2017-05-29T10:22:53.546Z,1011.84
2017-05-29T10:23:53.597Z,1011.98
2017-05-29T10:24:53.645Z,1011.91
2017-05-29T10:25:53.698Z,1012.19
2017-05-29T10:26:53.747Z,1012.39
2017-05-29T10:27:53.803Z,1012.13
2017-05-29T10:28:53.846Z,1012.17
2017-05-29T10:29:53.892Z,1011.98
2017-05-29T10:30:53.945Z,1012.32
2017-05-29T10:31:53.991Z,1012.41
2017-05-29T10:32:54.041Z,1012.88
2017-05-29T10:33:54.089Z,1013.78
2017-05-29T10:34:54.140Z,1012.82
2017-05-29T10:35:54.186Z,1012.28
2017-05-29T10:36:54.232Z,1013.9
2017-05-29T10:37:54.282Z,1013.6
2017-05-29T10:38:54.329Z,1013.39
2017-05-29T10:39:54.378Z,1014.07
2017-05-29T10:40:54.517Z,1014.12
2017-05-29T10:41:54.474Z,1013.26
2017-05-29T10:42:54.520Z,1012.95
2017-05-29T10:43:54.567Z,1013.15
2017-05-29T10:44:54.616Z,1013.9
2017-05-29T10:45:54.662Z,1013.8
2017-05-29T10:46:54.708Z,1013.44
2017-05-29T10:47:54.757Z,1012.92
2017-05-29T10:48:54.807Z,1012.04
2017-05-29T10:49:54.850Z,1012.35
2017-05-29T10:50:54.896Z,1013.68
2017-05-29T10:51:54.944Z,1012.3
2017-05-29T10:52:54.989Z,1012.01
2017-05-29T10:53:55.042Z,1011.94
2017-05-29T10:54:55.079Z,1012.24
2017-05-29T10:55:55.128Z,1012.18
2017-05-29T10:56:55.172Z,1011.93
2017-05-29T10:57:55.222Z,1011.83
2017-05-29T10:58:55.267Z,1011.71
2017-05-29T10:59:55.309Z,1011.61
2017-05-29T11:00:55.362Z,1011.58
2017-05-29T11:01:55.406Z,1011.6
2017-05-29T11:02:55.434Z,1011.52
2017-05-29T11:03:55.498Z,1011.56
2017-05-29T11:04:55.539Z,1011.56
2017-05-29T11:05:55.590Z,1011.55
2017-05-29T11:06:55.637Z,1011.55
2017-05-29T11:07:55.676Z,1011.52
2017-05-29T11:08:55.728Z,1011.54
2017-05-29T11:09:55.773Z,1011.5
2017-05-29T11:10:55.814Z,1011.57
2017-05-29T11:11:55.843Z,1011.49
2017-05-29T11:12:55.904Z,1011.52
2017-05-29T11:13:55.948Z,1011.52
2017-05-29T11:14:56.051Z,1011.5
2017-05-29T11:15:56.044Z,1011.49
2017-05-29T11:16:56.090Z,1011.53
2017-05-29T11:17:56.130Z,1011.53
2017-05-29T11:18:56.177Z,1011.48
2017-05-29T11:19:56.221Z,1011.47
2017-05-29T11:20:56.264Z,1011.47
2017-05-29T11:21:56.309Z,1011.4
2017-05-29T11:22:56.355Z,1011.4
2017-05-29T11:23:56.379Z,1011.39
2017-05-29T11:24:56.442Z,1011.33
2017-05-29T11:25:56.488Z,1011.29
2017-05-29T11:26:56.534Z,1011.24
2017-05-29T11:27:56.577Z,1011.21
2017-05-29T11:28:56.620Z,1011.22
2017-05-29T11:29:56.641Z,1011.23
2017-05-29T11:30:56.709Z,1011.26
2017-05-29T11:31:56.732Z,1011.21
2017-05-29T11:32:56.797Z,1011.2
2017-05-29T11:33:56.845Z,1011.23
2017-05-29T11:34:56.881Z,1011.25
2017-05-29T11:35:56.934Z,1011.19
2017-05-29T11:36:56.976Z,1011.26
2017-05-29T11:37:57.017Z,1011.22
2017-05-29T11:38:57.060Z,1011.22
2017-05-29T11:39:57.109Z,1011.17
2017-05-29T11:40:57.156Z,1011.26
2017-05-29T11:41:57.194Z,1011.2
2017-05-29T11:42:57.238Z,1011.19
2017-05-29T11:43:57.280Z,1011.21
2017-05-29T11:44:57.324Z,1011.21
2017-05-29T11:45:57.349Z,1011.25
2017-05-29T11:46:57.412Z,1011.21
2017-05-29T11:47:57.459Z,1011.17
2017-05-29T11:48:57.500Z,1011.14
2017-05-29T11:49:57.541Z,1011.18
2017-05-29T11:50:57.586Z,1011.16
2017-05-29T11:51:57.631Z,1011.12
2017-05-29T11:52:57.660Z,1011.15
2017-05-29T11:53:57.716Z,1011.16
2017-05-29T11:54:57.760Z,1011.16
2017-05-29T11:55:57.803Z,1011.12
2017-05-29T11:56:57.846Z,1011.1
2017-05-29T11:57:57.889Z,1011.12
2017-05-29T11:58:57.933Z,1011.04
2017-05-29T11:59:57.960Z,1011.07
2017-05-29T12:00:58.017Z,1011.08
2017-05-29T12:01:58.063Z,1011.05
2017-05-29T12:02:58.105Z,1011
2017-05-29T12:03:58.151Z,1011
2017-05-29T12:04:58.194Z,1010.97
2017-05-29T12:05:58.234Z,1011
2017-05-29T12:06:58.279Z,1010.95
2017-05-29T12:07:58.323Z,1010.94
2017-05-29T12:08:58.363Z,1010.89